Time;durP1;ratioP1;P1;durP2;ratioP2;P2;SDS_P1;SDS_P2;PMS_P1;PMS_P2;Temp;Humidity;BMP_temperature;BMP_pressure;BME280_temperature;BME280_humidity;BME280_pressure;Samples;Min_cycle;Max_cycle;Signal;HPM_P1;HPM_P2
2023/11/19 00:00:34;;;;;;;67.83;30.43;;;;;;;-0.23;100.00;101257.34;5141096;56;1143002;-71
2023/11/19 00:05:41;;;;;;;73.13;31.60;;;;;;;-0.27;100.00;101249.19;5142340;56;1142954;-71
2023/11/19 00:10:47;;;;;;;72.00;31.23;;;;;;;-0.29;100.00;101244.46;5162624;56;1142896;-72
2023/11/19 00:15:52;;;;;;;69.50;30.03;;;;;;;-0.30;100.00;101227.16;5142380;56;1142780;-72
2023/11/19 00:20:58;;;;;;;70.97;30.33;;;;;;;-0.29;100.00;101211.12;5142416;56;1142830;-72
2023/11/19 00:26:05;;;;;;;64.40;28.57;;;;;;;-0.30;100.00;101202.91;5141786;56;1142932;-72
2023/11/19 00:31:12;;;;;;;57.00;28.47;;;;;;;-0.25;100.00;101189.37;5162021;56;1142811;-72
2023/11/19 00:36:17;;;;;;;60.33;26.27;;;;;;;-0.20;100.00;101174.09;5136276;56;1142573;-71
2023/11/19 00:41:23;;;;;;;62.50;26.57;;;;;;;-0.23;100.00;101170.70;5133290;56;1142958;-72
2023/11/19 00:46:28;;;;;;;76.00;31.47;;;;;;;-0.23;100.00;101185.00;5153167;56;1143003;-72
2023/11/19 00:51:34;;;;;;;53.40;26.33;;;;;;;-0.20;100.00;101162.40;5120799;56;1143060;-72
2023/11/19 00:56:39;;;;;;;57.30;25.87;;;;;;;-0.20;100.00;101134.25;5109129;56;1143026;-72
2023/11/19 01:01:45;;;;;;;54.53;24.83;;;;;;;-0.20;100.00;101119.51;5153545;56;1142674;-72
2023/11/19 01:06:51;;;;;;;49.07;23.87;;;;;;;-0.20;100.00;101105.21;5141390;56;1142960;-72
2023/11/19 01:11:56;;;;;;;53.03;24.33;;;;;;;-0.21;100.00;101088.35;5141779;56;1142944;-73
2023/11/19 01:17:04;;;;;;;53.98;24.40;;;;;;;-0.21;100.00;101094.84;5142581;56;1143044;-72
2023/11/19 01:22:10;;;;;;;48.25;23.42;;;;;;;-0.20;100.00;101084.86;5162668;56;1142955;-72
2023/11/19 01:27:16;;;;;;;47.27;22.60;;;;;;;-0.22;100.00;101080.14;5142561;56;1143347;-71
2023/11/19 01:32:23;;;;;;;47.38;22.42;;;;;;;-0.20;100.00;101069.27;5141319;56;1142927;-71
2023/11/19 01:37:29;;;;;;;49.60;21.80;;;;;;;-0.18;100.00;101054.05;5163086;56;1142910;-72
2023/11/19 01:42:39;;;;;;;47.78;23.00;;;;;;;-0.16;100.00;101048.37;5142711;56;1143247;-72
2023/11/19 01:47:45;;;;;;;57.87;23.97;;;;;;;-0.17;100.00;101032.36;5135712;56;1144121;-72
2023/11/19 01:52:54;;;;;;;48.63;23.42;;;;;;;-0.13;100.00;101021.41;5096602;56;1143208;-73
2023/11/19 01:58:02;;;;;;;63.53;26.07;;;;;;;-0.09;100.00;101013.95;5102457;56;1143054;-71
2023/11/19 02:03:08;;;;;;;59.63;25.95;;;;;;;-0.09;100.00;101000.95;5074955;56;1143004;-72
2023/11/19 02:08:14;;;;;;;57.57;25.77;;;;;;;-0.10;100.00;100979.74;5162918;56;1142797;-72
2023/11/19 02:13:23;;;;;;;58.17;25.70;;;;;;;-0.09;100.00;100973.66;5143163;56;1143001;-72
2023/11/19 02:18:29;;;;;;;52.27;24.27;;;;;;;-0.12;100.00;100953.78;5143028;56;1142810;-71
2023/11/19 02:23:35;;;;;;;50.63;26.23;;;;;;;-0.10;100.00;100949.84;5163263;56;1143177;-72
2023/11/19 02:28:40;;;;;;;47.77;24.13;;;;;;;-0.10;100.00;100944.20;5142850;56;1142772;-71
2023/11/19 02:33:46;;;;;;;47.65;23.07;;;;;;;-0.12;100.00;100929.09;5142304;56;1142624;-72
2023/11/19 02:38:52;;;;;;;52.00;23.50;;;;;;;-0.09;100.00;100916.02;5162902;56;1142907;-72
2023/11/19 02:43:58;;;;;;;52.50;23.97;;;;;;;-0.03;100.00;100925.41;5142007;56;1143189;-72
2023/11/19 02:49:03;;;;;;;55.70;25.35;;;;;;;-0.02;100.00;100915.41;5123438;56;1143197;-72
2023/11/19 02:54:09;;;;;;;44.30;22.43;;;;;;;-0.03;100.00;100905.45;5077618;56;1142973;-71
2023/11/19 02:59:27;;;;;;;52.27;23.67;;;;;;;-0.01;100.00;100895.02;5118746;56;1142943;-72
2023/11/19 03:04:23;;;;;;;53.33;23.98;;;;;;;0.01;100.00;100890.59;4972569;58;1142728;-71
2023/11/19 03:09:29;;;;;;;52.67;25.02;;;;;;;0.05;100.00;100870.13;5163550;56;1140591;-72
2023/11/19 03:14:35;;;;;;;55.20;25.23;;;;;;;0.10;100.00;100858.30;5142373;56;1140740;-72
2023/11/19 03:19:41;;;;;;;49.20;24.77;;;;;;;0.13;100.00;100843.91;5141942;56;1140931;-72
2023/11/19 03:24:46;;;;;;;53.80;23.67;;;;;;;0.09;100.00;100828.84;5163366;56;1140866;-72
2023/11/19 03:29:52;;;;;;;52.03;24.40;;;;;;;0.08;100.00;100823.68;5142865;56;1140710;-72
2023/11/19 03:34:58;;;;;;;48.40;24.47;;;;;;;0.07;100.00;100805.08;5143109;56;1140935;-72
2023/11/19 03:40:04;;;;;;;48.92;23.50;;;;;;;0.05;100.00;100788.66;5136185;56;1141073;-72
2023/11/19 03:45:10;;;;;;;45.08;20.92;;;;;;;0.04;100.00;100786.51;5077139;57;1140747;-71
2023/11/19 03:50:15;;;;;;;50.37;23.83;;;;;;;0.02;100.00;100777.05;5055841;57;1140699;-72
2023/11/19 03:55:21;;;;;;;55.43;23.93;;;;;;;0.02;100.00;100767.50;5053785;57;1141064;-72
2023/11/19 04:00:27;;;;;;;54.70;25.15;;;;;;;0.03;100.00;100755.34;5150261;56;1141046;-72
2023/11/19 04:05:33;;;;;;;47.90;22.73;;;;;;;0.03;100.00;100745.80;5139783;56;1140874;-71
2023/11/19 04:10:38;;;;;;;42.30;21.10;;;;;;;0.06;100.00;100722.76;5142568;56;1141228;-71
2023/11/19 04:15:44;;;;;;;42.57;21.47;;;;;;;0.07;100.00;100719.27;5163324;56;1140902;-72
2023/11/19 04:20:50;;;;;;;50.17;24.60;;;;;;;0.08;100.00;100685.86;5143214;56;1140754;-72
2023/11/19 04:25:56;;;;;;;42.62;21.97;;;;;;;0.08;100.00;100676.31;5142723;56;1140966;-72
2023/11/19 04:31:03;;;;;;;61.15;28.07;;;;;;;0.06;100.00;100670.31;5064601;56;1140929;-72
2023/11/19 04:36:09;;;;;;;46.00;20.67;;;;;;;0.08;100.00;100664.61;5074282;57;1140531;-72
2023/11/19 04:41:14;;;;;;;43.73;22.47;;;;;;;0.07;100.00;100661.61;4971907;58;1140569;-72
2023/11/19 04:46:20;;;;;;;45.58;21.52;;;;;;;0.09;100.00;100665.46;4953883;58;1141069;-72
2023/11/19 04:51:26;;;;;;;42.87;21.67;;;;;;;0.11;100.00;100663.67;5050702;57;1140895;-72
2023/11/19 04:56:31;;;;;;;45.97;23.37;;;;;;;0.12;100.00;100672.72;5041380;57;1140958;-71
2023/11/19 05:01:37;;;;;;;47.20;22.93;;;;;;;0.12;100.00;100653.67;4892487;58;1140985;-71
2023/11/19 05:06:43;;;;;;;41.30;21.83;;;;;;;0.12;100.00;100641.97;5068732;57;1140913;-71
2023/11/19 05:11:49;;;;;;;47.63;23.77;;;;;;;0.12;100.00;100635.02;5055627;57;1140666;-73
2023/11/19 05:16:54;;;;;;;52.73;25.10;;;;;;;0.12;100.00;100636.31;5055228;57;1141056;-72
2023/11/19 05:22:00;;;;;;;44.00;22.80;;;;;;;0.11;100.00;100624.22;5054724;57;1141168;-71
2023/11/19 05:27:06;;;;;;;43.70;22.27;;;;;;;0.10;100.00;100610.81;5075261;57;1140955;-72
2023/11/19 05:32:12;;;;;;;47.37;22.27;;;;;;;0.13;100.00;100598.16;5055738;56;1141121;-73
2023/11/19 05:37:18;;;;;;;44.90;21.97;;;;;;;0.13;100.00;100595.56;5054547;57;1140937;-72
2023/11/19 05:42:24;;;;;;;48.00;24.02;;;;;;;0.12;100.00;100572.61;5077399;57;1140955;-72
2023/11/19 05:47:29;;;;;;;45.97;24.07;;;;;;;0.14;100.00;100564.30;5057337;57;1140654;-72
2023/11/19 05:52:35;;;;;;;41.83;23.17;;;;;;;0.17;100.00;100538.63;5055621;56;1141064;-72
2023/11/19 05:57:41;;;;;;;53.37;25.13;;;;;;;0.18;100.00;100522.12;5075522;56;1140950;-72
2023/11/19 06:02:47;;;;;;;55.93;24.83;;;;;;;0.18;100.00;100513.86;5055755;56;1140781;-71
2023/11/19 06:07:53;;;;;;;40.73;23.07;;;;;;;0.20;100.00;100510.77;5055204;56;1140954;-71
2023/11/19 06:13:00;;;;;;;47.80;25.27;;;;;;;0.16;100.00;100493.56;4973228;57;1140962;-72
2023/11/19 06:18:06;;;;;;;61.03;29.60;;;;;;;0.17;100.00;100486.16;5051823;56;1141331;-72
2023/11/19 06:23:12;;;;;;;44.83;23.87;;;;;;;0.20;100.00;100477.41;5055797;56;1140994;-73
2023/11/19 06:28:18;;;;;;;47.23;24.10;;;;;;;0.21;100.00;100457.00;5055327;56;1140881;-71
2023/11/19 06:33:24;;;;;;;50.13;25.10;;;;;;;0.21;100.00;100444.84;5109289;56;1150045;-71
2023/11/19 06:38:29;;;;;;;47.17;24.93;;;;;;;0.22;100.00;100441.34;5127109;56;1140687;-72
2023/11/19 06:43:35;;;;;;;57.53;30.10;;;;;;;0.23;100.00;100424.84;5127148;56;1141047;-71
2023/11/19 06:48:42;;;;;;;41.40;22.70;;;;;;;0.25;100.00;100420.43;5133327;56;1140763;-72
2023/11/19 06:53:47;;;;;;;44.70;22.40;;;;;;;0.28;100.00;100412.52;5042981;56;1140656;-72
2023/11/19 06:58:54;;;;;;;46.05;23.87;;;;;;;0.30;100.00;100411.16;5096625;56;1140837;-72
2023/11/19 07:04:01;;;;;;;43.87;22.07;;;;;;;0.34;100.00;100397.11;5098580;56;1141022;-72
2023/11/19 07:09:10;;;;;;;47.23;24.13;;;;;;;0.39;100.00;100393.05;5147616;56;1140866;-72
2023/11/19 07:14:16;;;;;;;40.00;21.60;;;;;;;0.39;100.00;100382.20;5123170;56;1140721;-72
2023/11/19 07:19:21;;;;;;;44.07;24.13;;;;;;;0.41;100.00;100367.38;5130838;55;1141134;-74
2023/11/19 07:24:28;;;;;;;47.50;22.25;;;;;;;0.43;100.00;100364.27;5176089;54;1140686;-72
2023/11/19 07:29:33;;;;;;;37.37;18.87;;;;;;;0.46;100.00;100366.73;5113047;55;1140837;-72
2023/11/19 07:34:39;;;;;;;51.70;22.48;;;;;;;0.46;100.00;100346.40;5116091;55;1140811;-73
2023/11/19 07:39:45;;;;;;;40.73;21.33;;;;;;;0.47;100.00;100354.11;5073441;57;1140754;-72
2023/11/19 07:44:50;;;;;;;67.50;32.57;;;;;;;0.46;100.00;100338.11;5054973;57;1140951;-72
2023/11/19 07:49:56;;;;;;;39.10;22.57;;;;;;;0.47;100.00;100334.60;5014660;57;1140846;-72
2023/11/19 07:55:02;;;;;;;40.12;20.70;;;;;;;0.53;100.00;100320.52;5039318;57;1140873;-72
2023/11/19 08:00:12;;;;;;;35.58;20.20;;;;;;;0.55;100.00;100322.16;5001673;57;1140740;-72
2023/11/19 08:05:19;;;;;;;41.60;21.73;;;;;;;0.60;100.00;100315.48;5026517;57;1140835;-72
2023/11/19 08:10:24;;;;;;;40.23;22.27;;;;;;;0.64;100.00;100292.30;5056325;56;1140838;-73
2023/11/19 08:15:30;;;;;;;41.00;22.30;;;;;;;0.66;100.00;100282.23;5024598;56;1140968;-73
2023/11/19 08:20:35;;;;;;;40.00;23.13;;;;;;;0.67;100.00;100267.00;5114468;56;1140906;-73
2023/11/19 08:25:41;;;;;;;44.23;22.80;;;;;;;0.69;100.00;100272.15;5049597;56;1140704;-73
2023/11/19 08:30:47;;;;;;;39.90;20.47;;;;;;;0.71;100.00;100256.02;5078191;56;1140782;-73
2023/11/19 08:35:52;;;;;;;36.70;20.70;;;;;;;0.75;100.00;100241.98;5067047;56;1140865;-73
2023/11/19 08:41:03;;;;;;;44.30;23.50;;;;;;;0.79;100.00;100237.47;5041342;57;1140868;-73
2023/11/19 08:46:10;;;;;;;45.83;23.53;;;;;;;0.85;100.00;100228.95;5126729;56;1141006;-73
2023/11/19 08:51:16;;;;;;;42.53;23.57;;;;;;;0.85;100.00;100220.30;5145979;56;1140958;-72
2023/11/19 08:56:22;;;;;;;47.10;20.93;;;;;;;0.88;100.00;100208.46;5113785;56;1140734;-72
2023/11/19 09:01:28;;;;;;;45.33;22.57;;;;;;;0.93;100.00;100199.52;4969724;57;1140970;-73
2023/11/19 09:06:35;;;;;;;39.80;20.50;;;;;;;0.99;100.00;100190.16;5137391;56;1140927;-72
2023/11/19 09:11:42;;;;;;;42.15;20.97;;;;;;;1.01;100.00;100187.48;5021421;56;1140808;-73
2023/11/19 09:16:47;;;;;;;42.87;21.43;;;;;;;1.01;100.00;100180.52;4960293;57;1140952;-73
2023/11/19 09:21:54;;;;;;;49.90;25.27;;;;;;;1.00;100.00;100170.17;5060127;56;1140905;-72
2023/11/19 09:27:00;;;;;;;48.43;27.23;;;;;;;1.00;100.00;100159.30;5041126;56;1140820;-72
2023/11/19 09:32:06;;;;;;;36.07;22.27;;;;;;;0.98;100.00;100144.20;5041363;56;1140869;-73
2023/11/19 09:37:12;;;;;;;45.40;22.70;;;;;;;0.97;100.00;100141.66;5060777;56;1140815;-73
2023/11/19 09:42:17;;;;;;;36.23;20.60;;;;;;;0.96;100.00;100133.00;5041999;56;1140880;-73
2023/11/19 09:47:27;;;;;;;50.48;29.70;;;;;;;0.92;100.00;100116.27;5113926;56;1140842;-74
2023/11/19 09:52:33;;;;;;;45.90;23.93;;;;;;;0.93;100.00;100116.66;5131082;56;1140899;-69
2023/11/19 09:57:46;;;;;;;51.13;24.35;;;;;;;0.87;100.00;100103.48;5091603;56;1140829;-67
2023/11/19 10:02:50;;;;;;;48.40;21.87;;;;;;;0.83;100.00;100095.41;5053957;56;1141018;-67
2023/11/19 10:07:56;;;;;;;41.55;21.82;;;;;;;0.79;100.00;100096.45;5138208;55;1140720;-68
2023/11/19 10:13:02;;;;;;;43.67;22.23;;;;;;;0.76;100.00;100086.66;5148740;55;1140759;-68
2023/11/19 10:18:08;;;;;;;54.47;26.47;;;;;;;0.73;100.00;100081.58;5125536;56;1140978;-68
2023/11/19 10:23:14;;;;;;;39.97;21.53;;;;;;;0.69;100.00;100071.76;5126848;56;1140825;-67
2023/11/19 10:28:20;;;;;;;76.00;32.20;;;;;;;0.69;100.00;100069.16;5146844;56;1140460;-70
2023/11/19 10:33:29;;;;;;;37.90;21.30;;;;;;;0.69;100.00;100060.05;5093986;56;1140547;-74
2023/11/19 10:38:35;;;;;;;32.00;18.00;;;;;;;0.70;100.00;100053.47;5057928;56;1140813;-73
2023/11/19 10:43:46;;;;;;;41.76;20.96;;;;;;;0.70;100.00;100039.61;5031845;57;1140620;-74
2023/11/19 10:48:54;;;;;;;37.03;20.13;;;;;;;0.70;100.00;100031.81;5126580;56;1140825;-74
2023/11/19 10:54:06;;;;;;;38.03;19.83;;;;;;;0.70;100.00;100018.34;5097614;56;1140820;-74
2023/11/19 10:59:12;;;;;;;49.87;23.83;;;;;;;0.70;100.00;100016.20;5065250;56;1140839;-70
2023/11/19 11:04:22;;;;;;;84.27;33.73;;;;;;;0.69;100.00;100002.33;5098879;56;1140625;-70
2023/11/19 11:09:29;;;;;;;47.73;24.20;;;;;;;0.69;100.00;99996.28;5075518;56;1140852;-68
2023/11/19 11:14:35;;;;;;;36.55;19.23;;;;;;;0.69;100.00;99971.11;5111618;55;1138760;-72
2023/11/19 11:19:43;;;;;;;34.88;19.42;;;;;;;0.67;100.00;99948.20;5062469;56;1138989;-66
2023/11/19 11:25:09;;;;;;;37.23;18.83;;;;;;;0.70;100.00;99958.48;5043142;56;1138641;-67
2023/11/19 11:30:48;;;;;;;38.07;22.07;;;;;;;0.73;100.00;99939.28;5121231;56;1138764;-72
2023/11/19 11:36:22;;;;;;;35.10;19.20;;;;;;;0.76;100.00;99926.59;5125574;56;1138924;-76
2023/11/19 11:41:29;;;;;;;31.70;16.40;;;;;;;0.79;100.00;99905.60;5126882;56;1138656;-75
2023/11/19 11:46:39;;;;;;;30.32;15.48;;;;;;;0.82;100.00;99907.61;5146899;56;1138805;-73
2023/11/19 11:51:50;;;;;;;40.30;17.17;;;;;;;0.80;100.00;99880.80;5110438;55;1138635;-73
2023/11/19 11:57:17;;;;;;;37.03;22.03;;;;;;;0.79;100.00;99887.37;5077247;55;1139230;-76
2023/11/19 12:02:23;;;;;;;25.43;14.10;;;;;;;0.77;100.00;99893.95;5046051;56;1138637;-75
2023/11/19 12:07:29;;;;;;;25.83;14.63;;;;;;;0.78;100.00;99872.22;5121554;56;1138969;-74
2023/11/19 12:12:37;;;;;;;24.57;13.93;;;;;;;0.81;100.00;99862.13;5041170;57;1139069;-74
2023/11/19 12:17:46;;;;;;;33.70;17.67;;;;;;;0.84;100.00;99852.88;5042677;57;1139141;-74
2023/11/19 12:22:53;;;;;;;35.63;18.67;;;;;;;0.85;100.00;99843.69;5056379;57;1138800;-74
2023/11/19 12:27:59;;;;;;;41.37;20.70;;;;;;;0.82;100.00;99841.23;5043199;56;1138894;-73
2023/11/19 12:33:11;;;;;;;31.47;16.47;;;;;;;0.82;100.00;99838.63;5068173;56;1139022;-75
2023/11/19 12:38:25;;;;;;;25.40;15.00;;;;;;;0.82;100.00;99827.38;5081847;56;1139057;-74
2023/11/19 12:43:30;;;;;;;28.30;13.93;;;;;;;0.81;100.00;99817.42;5006592;57;1138730;-73
2023/11/19 12:48:36;;;;;;;30.73;16.50;;;;;;;0.84;100.00;99811.23;5137915;56;1138991;-74
2023/11/19 12:53:55;;;;;;;22.67;12.90;;;;;;;0.90;100.00;99814.39;5120199;55;1138826;-72
2023/11/19 12:59:12;;;;;;;24.43;14.73;;;;;;;0.93;100.00;99792.08;5053315;56;1138495;-73
2023/11/19 13:04:19;;;;;;;26.70;14.68;;;;;;;0.94;100.00;99798.97;5089225;56;1138849;-73
2023/11/19 13:09:26;;;;;;;38.23;22.27;;;;;;;0.94;100.00;99784.66;5114338;55;1138498;-74
2023/11/19 13:14:39;;;;;;;25.30;15.37;;;;;;;0.94;100.00;99787.26;5052753;57;1146722;-73
2023/11/19 13:19:48;;;;;;;28.33;16.03;;;;;;;0.96;100.00;99768.96;5128536;56;1138406;-73
2023/11/19 13:24:54;;;;;;;28.07;16.23;;;;;;;0.96;100.00;99763.30;5116129;56;1138818;-73
2023/11/19 13:30:00;;;;;;;25.80;15.57;;;;;;;0.96;100.00;99747.67;5092024;56;1138768;-75
2023/11/19 13:35:08;;;;;;;33.50;17.98;;;;;;;0.94;100.00;99737.80;5088126;56;1138788;-74
2023/11/19 13:40:15;;;;;;;42.00;24.13;;;;;;;0.98;100.00;99743.23;5135763;56;1138754;-74
2023/11/19 13:45:20;;;;;;;27.50;16.47;;;;;;;1.00;100.00;99730.15;5127250;56;1138700;-73
2023/11/19 13:50:28;;;;;;;29.50;15.70;;;;;;;1.01;100.00;99722.72;5040942;56;1138989;-73
2023/11/19 13:55:34;;;;;;;34.06;18.26;;;;;;;1.02;100.00;99721.34;5073546;57;1138947;-73
2023/11/19 14:00:41;;;;;;;44.97;25.00;;;;;;;0.98;100.00;99710.70;5036284;56;1138830;-73
2023/11/19 14:05:47;;;;;;;36.05;21.15;;;;;;;0.97;100.00;99712.07;5040825;56;1138620;-73
2023/11/19 14:10:55;;;;;;;77.43;47.37;;;;;;;0.96;100.00;99698.67;5070181;56;1138828;-73
2023/11/19 14:16:00;;;;;;;50.27;30.77;;;;;;;0.93;100.00;99697.06;5028499;56;1138800;-73
2023/11/19 14:21:06;;;;;;;38.03;20.83;;;;;;;0.96;100.00;99691.70;5032854;57;1138794;-74
2023/11/19 14:26:12;;;;;;;35.27;21.40;;;;;;;0.98;100.00;99679.91;5057577;57;1139077;-73
2023/11/19 14:31:17;;;;;;;41.37;21.87;;;;;;;1.01;100.00;99680.60;5026094;57;1138702;-73
2023/11/19 14:36:23;;;;;;;70.93;34.60;;;;;;;1.05;100.00;99682.14;5036024;57;1138685;-74
2023/11/19 14:41:28;;;;;;;59.93;28.47;;;;;;;1.11;100.00;99680.95;5065570;56;1252533;-72
2023/11/19 14:46:34;;;;;;;67.53;30.50;;;;;;;1.13;100.00;99678.27;5043274;56;1138650;-74
2023/11/19 14:51:40;;;;;;;56.58;26.25;;;;;;;1.12;100.00;99668.31;5112653;56;1138880;-73
2023/11/19 14:56:45;;;;;;;46.40;22.55;;;;;;;1.09;100.00;99654.15;5157150;56;1138802;-74
2023/11/19 15:01:51;;;;;;;43.85;21.52;;;;;;;1.05;100.00;99652.19;5136665;56;1138860;-74
2023/11/19 15:06:59;;;;;;;47.00;23.07;;;;;;;1.04;100.00;99644.45;5138291;56;1138922;-74
2023/11/19 15:12:06;;;;;;;49.63;24.03;;;;;;;1.05;100.00;99641.77;5137432;56;1138730;-73
2023/11/19 15:17:12;;;;;;;131.03;53.00;;;;;;;1.07;100.00;99646.88;5158519;56;1138754;-75
2023/11/19 15:22:18;;;;;;;53.20;27.03;;;;;;;1.11;100.00;99641.89;5137908;56;1141021;-75
2023/11/19 15:27:23;;;;;;;47.33;24.63;;;;;;;1.15;100.00;99640.81;5137599;56;1138885;-75
2023/11/19 15:32:31;;;;;;;50.13;26.17;;;;;;;1.21;100.00;99637.06;5147580;56;1138645;-74
2023/11/19 15:37:36;;;;;;;56.47;30.37;;;;;;;1.19;100.00;99632.39;5067466;56;1144600;-74
2023/11/19 15:42:43;;;;;;;49.42;25.68;;;;;;;1.18;100.00;99632.01;5053588;57;1138684;-75
2023/11/19 15:47:50;;;;;;;51.33;23.33;;;;;;;1.19;100.00;99627.18;5088910;56;1138622;-73
2023/11/19 15:52:56;;;;;;;59.63;34.63;;;;;;;1.20;100.00;99619.28;5086245;56;1138773;-75
2023/11/19 15:58:01;;;;;;;57.33;26.80;;;;;;;1.21;100.00;99613.62;5098165;55;1138801;-75
2023/11/19 16:03:07;;;;;;;51.50;25.57;;;;;;;1.22;100.00;99617.41;5109274;55;1138798;-73
2023/11/19 16:08:13;;;;;;;262.27;82.87;;;;;;;1.22;100.00;99607.00;5127364;55;1138987;-74
2023/11/19 16:13:19;;;;;;;126.90;51.97;;;;;;;1.30;100.00;99598.33;5147514;55;1140689;-75
2023/11/19 16:18:24;;;;;;;77.53;36.13;;;;;;;1.35;100.00;99604.14;5149848;55;1141084;-74
2023/11/19 16:23:30;;;;;;;77.67;34.07;;;;;;;1.39;100.00;99596.51;5152231;55;1138845;-74
2023/11/19 16:28:35;;;;;;;75.33;30.70;;;;;;;1.40;100.00;99594.74;5172598;55;1148250;-74
2023/11/19 16:33:41;;;;;;;83.85;37.28;;;;;;;1.39;100.00;99593.90;5183063;55;1138730;-74
2023/11/19 16:38:49;;;;;;;90.83;39.78;;;;;;;1.39;100.00;99583.94;5176391;55;1138863;-74
2023/11/19 16:43:59;;;;;;;93.27;48.90;;;;;;;1.36;100.00;99582.37;5141558;56;1138596;-74
2023/11/19 16:49:02;;;;;;;57.83;30.40;;;;;;;1.37;100.00;99582.75;5141672;56;1138633;-75
2023/11/19 16:54:08;;;;;;;69.67;37.90;;;;;;;1.44;100.00;99582.40;5070621;56;1138737;-75
2023/11/19 16:59:15;;;;;;;58.00;32.08;;;;;;;1.51;100.00;99566.81;5071953;56;1139043;-76
2023/11/19 17:04:21;;;;;;;54.80;26.57;;;;;;;1.58;100.00;99582.01;5053528;57;1138874;-76
2023/11/19 17:09:27;;;;;;;58.37;30.93;;;;;;;1.66;100.00;99577.23;5054241;56;1138861;-73
2023/11/19 17:14:38;;;;;;;82.77;40.70;;;;;;;1.73;100.00;99581.61;5073172;57;1138961;-75
2023/11/19 17:19:43;;;;;;;127.00;59.75;;;;;;;1.79;100.00;99570.85;5054120;56;1138928;-75
2023/11/19 17:24:49;;;;;;;110.23;50.43;;;;;;;1.97;100.00;99563.29;5053944;57;1141068;-75
2023/11/19 17:30:00;;;;;;;84.03;38.13;;;;;;;1.97;100.00;99563.29;5073764;57;1140889;-74
2023/11/19 17:35:05;;;;;;;102.77;46.87;;;;;;;2.09;100.00;99569.56;5052503;56;1138752;-74
2023/11/19 17:40:13;;;;;;;97.22;43.58;;;;;;;2.20;100.00;99571.06;5053371;56;1143007;-75
2023/11/19 17:45:19;;;;;;;54.10;26.07;;;;;;;2.30;100.00;99563.06;5067340;57;1140916;-75
2023/11/19 17:50:25;;;;;;;67.60;30.70;;;;;;;2.43;100.00;99561.91;5055409;57;1138663;-76
2023/11/19 17:55:31;;;;;;;67.07;33.30;;;;;;;2.60;100.00;99559.59;5060801;56;1138638;-76
2023/11/19 18:00:37;;;;;;;73.83;33.27;;;;;;;2.82;100.00;99562.56;5070685;56;1138827;-73
2023/11/19 18:05:43;;;;;;;89.00;44.47;;;;;;;3.01;100.00;99568.34;5035859;56;1138441;-75
2023/11/19 18:10:48;;;;;;;75.37;36.15;;;;;;;3.24;100.00;99560.83;5053573;57;1138848;-73
2023/11/19 18:15:54;;;;;;;69.67;33.17;;;;;;;3.35;100.00;99557.94;5074975;57;1138502;-77
2023/11/19 18:21:00;;;;;;;54.40;28.20;;;;;;;3.44;100.00;99578.25;5052066;56;1138700;-74
2023/11/19 18:26:06;;;;;;;230.32;133.65;;;;;;;3.47;100.00;99569.38;5055112;56;1139013;-75
2023/11/19 18:31:11;;;;;;;117.55;55.48;;;;;;;3.45;100.00;99576.02;5074520;56;1142774;-76
2023/11/19 18:36:17;;;;;;;314.23;160.03;;;;;;;3.46;100.00;99573.77;5054628;56;1143284;-74
2023/11/19 18:41:22;;;;;;;90.80;41.87;;;;;;;3.48;100.00;99578.91;5054453;57;1145149;-74
2023/11/19 18:46:28;;;;;;;70.13;32.83;;;;;;;3.49;100.00;99564.44;5073816;57;1141078;-75
2023/11/19 18:51:35;;;;;;;47.36;22.12;;;;;;;3.50;100.00;99569.20;5071545;56;1138840;-75
2023/11/19 18:56:41;;;;;;;44.27;21.67;;;;;;;3.61;100.00;99577.65;5099319;56;1138839;-76
2023/11/19 19:01:47;;;;;;;42.40;22.55;;;;;;;3.72;100.00;99576.48;5163138;56;1140740;-76
2023/11/19 19:06:52;;;;;;;42.57;22.93;;;;;;;3.85;100.00;99579.52;5139380;55;1140739;-74
2023/11/19 19:11:58;;;;;;;42.57;22.33;;;;;;;3.92;100.00;99577.35;5054782;57;1140912;-76
2023/11/19 19:17:04;;;;;;;48.33;23.98;;;;;;;3.96;100.00;99578.00;5055043;57;1140977;-76
2023/11/19 19:22:09;;;;;;;49.57;26.47;;;;;;;4.06;100.00;99576.45;5073494;56;1140677;-76
2023/11/19 19:27:15;;;;;;;50.13;25.60;;;;;;;4.16;100.00;99579.65;5054951;56;1140529;-75
2023/11/19 19:32:20;;;;;;;44.73;21.13;;;;;;;4.28;100.00;99575.38;5055274;56;1140744;-75
2023/11/19 19:37:26;;;;;;;36.27;17.77;;;;;;;4.37;100.00;99576.55;5075556;57;1140846;-74
2023/11/19 19:42:31;;;;;;;32.87;14.83;;;;;;;4.65;100.00;99582.06;5055594;57;1141078;-77
2023/11/19 19:47:39;;;;;;;21.63;11.90;;;;;;;4.65;100.00;99582.06;5059785;56;1140987;-76
2023/11/19 19:52:44;;;;;;;22.67;9.08;;;;;;;4.72;100.00;99583.34;5023031;56;1140994;-77
2023/11/19 19:57:50;;;;;;;24.23;10.57;;;;;;;4.85;100.00;99586.79;5063372;56;1138915;-78
2023/11/19 20:02:58;;;;;;;31.90;10.10;;;;;;;4.98;100.00;99589.39;5053047;57;1141015;-75
2023/11/19 20:08:03;;;;;;;31.12;9.88;;;;;;;5.06;100.00;99589.69;5010079;57;1141132;-76
2023/11/19 20:13:14;;;;;;;26.97;9.23;;;;;;;5.20;100.00;99601.35;4983604;57;1138645;-76
2023/11/19 20:18:19;;;;;;;35.10;12.63;;;;;;;5.20;100.00;99601.35;5054347;56;1138738;-76
2023/11/19 20:23:25;;;;;;;39.77;13.70;;;;;;;5.26;100.00;99610.11;5054586;57;1140923;-75
2023/11/19 20:28:30;;;;;;;37.73;14.80;;;;;;;5.36;100.00;99607.67;5073665;57;1140979;-74
2023/11/19 20:33:37;;;;;;;37.95;12.90;;;;;;;5.42;100.00;99600.22;5030619;57;1140769;-76
2023/11/19 20:38:43;;;;;;;34.60;9.03;;;;;;;5.50;100.00;99608.36;5043526;56;1140664;-78
2023/11/19 20:43:55;;;;;;;27.52;7.15;;;;;;;5.60;100.00;99602.84;5154524;56;1138907;-77
2023/11/19 20:49:01;;;;;;;21.20;6.87;;;;;;;5.66;100.00;99604.17;5110449;56;1138434;-76
2023/11/19 20:54:07;;;;;;;25.17;6.03;;;;;;;5.73;100.00;99604.11;5091346;56;1139076;-77
2023/11/19 20:59:16;;;;;;;25.60;5.90;;;;;;;5.80;100.00;99606.66;5151372;56;1138765;-77
2023/11/19 21:04:20;;;;;;;20.23;6.77;;;;;;;5.87;100.00;99600.01;5126696;55;1138487;-75
2023/11/19 21:09:25;;;;;;;33.93;9.23;;;;;;;5.96;100.00;99608.54;5126711;56;1138421;-77
2023/11/19 21:14:32;;;;;;;23.87;5.43;;;;;;;6.02;100.00;99605.95;5135464;56;1138936;-76
2023/11/19 21:19:38;;;;;;;38.97;10.57;;;;;;;6.09;100.00;99607.67;5126336;55;1138564;-75
2023/11/19 21:24:43;;;;;;;55.60;23.60;;;;;;;6.17;100.00;99605.30;5115208;56;1140961;-74
2023/11/19 21:29:49;;;;;;;47.30;13.40;;;;;;;6.24;100.00;99599.97;5060554;56;1140953;-73
2023/11/19 21:34:54;;;;;;;84.97;30.62;;;;;;;6.32;100.00;99602.84;5041345;56;1140752;-74
2023/11/19 21:40:00;;;;;;;67.10;13.73;;;;;;;6.38;100.00;99598.94;5105146;56;1140639;-74
2023/11/19 21:45:06;;;;;;;66.75;12.93;;;;;;;6.43;100.00;99602.03;5039584;56;1141169;-74
2023/11/19 21:50:12;;;;;;;40.83;8.00;;;;;;;6.47;100.00;99605.64;5138338;56;1140824;-74
2023/11/19 21:55:17;;;;;;;30.07;7.30;;;;;;;6.53;100.00;99608.30;5104390;56;1138666;-74
2023/11/19 22:00:23;;;;;;;70.50;22.48;;;;;;;6.61;100.00;99609.84;5124982;56;1138609;-74
2023/11/19 22:05:29;;;;;;;28.50;7.53;;;;;;;6.73;100.00;99602.34;5117457;56;1141162;-75
2023/11/19 22:10:35;;;;;;;31.50;7.57;;;;;;;6.81;100.00;99607.03;5125335;56;1138560;-72
2023/11/19 22:15:41;;;;;;;23.47;6.17;;;;;;;6.85;100.00;99598.80;5078742;56;1138947;-71
2023/11/19 22:20:46;;;;;;;25.60;6.00;;;;;;;6.91;100.00;99600.94;5122216;55;1138885;-74
2023/11/19 22:25:52;;;;;;;26.73;6.12;;;;;;;6.97;100.00;99595.70;4993695;57;1138792;-74
2023/11/19 22:30:58;;;;;;;31.10;8.17;;;;;;;7.05;100.00;99602.02;5058179;56;1138913;-74
2023/11/19 22:36:03;;;;;;;23.17;5.03;;;;;;;7.10;100.00;99606.09;5041811;57;1138629;-74
2023/11/19 22:41:09;;;;;;;29.97;6.20;;;;;;;7.15;100.00;99610.05;5146456;56;1138810;-74
2023/11/19 22:46:15;;;;;;;26.70;7.73;;;;;;;7.18;100.00;99607.66;5127041;56;1138733;-74